Jodel D119


A côté de nos avions modernes à train tricycle, celui qui occupe une place exceptionnelle dans le cœur de bien des pilotes du Club, c’est le petit Jodel D119, biplace de 90 CV qui nous permet de vous proposer l’heure de vol en solo à un prix imbattable (fluctuant en fonction du prix de l’essence).Voir Tarif
Petit biplace côte à côte, à train classique, idéal pour la formation toute en finesse des futurs pilotes (à la condition qu’ils ne soient pas trop lourds) et pour entretenir à moindre coût pendant l’hiver votre habileté au pilotage.

Caractéristiques :

Moteur Continental de 90cv
Consommation : 20 l/h
Autonomie : 4 h + la sécurité
Vitesse de croisière : 185 km/h

Equipement :

-Une VHF
-Un Transpondeur mode S
-Une VOR
-Une GPS

Le Jodel

Webcam :

Nuit aéronautique

14 Nov 2018

Heure locale,
pour LFDL uniquement.

Lever du soleil aéronautique :07:33
Lever du soleil :08:03
Coucher du soleil :17:24
Coucher du soleil aéronautique :17:54

Metar

LFBI :
2018/11/14 15:00
LFBI 141500Z AUTO 17005KT CAVOK 19/12 Q1022 NOSIG
LFBI :
Poitiers, France (LFBI) 46-35N 000-19E 120M
Nov 14, 2018 - 10:00 AM EST / 2018.11.14 1500 UTC
Wind: from the S (170 degrees) at 6 MPH (5 KT):0
Visibility: greater than 7 mile(s):0
Temperature: 66 F (19 C)
Dew Point: 53 F (12 C)
Relative Humidity: 63%
Pressure (altimeter): 30.18 in. Hg (1022 hPa)
ob: LFBI 141500Z AUTO 17005KT CAVOK 19/12 Q1022 NOSIG
cycle: 15

Afficher le metar d'une autre station :
Code OACI :

Aéroclub de Loudun


Bellevue
86200 Loudun


Contacter Michel Richez (président)

  • Mail:michel.richez@free.fr
  • Tel:09-50-38-02-06
  • Mobile:06-52-73-09-01



agrandir le plan

Newsletter

Mon e-mail :